Time;durP1;ratioP1;P1;durP2;ratioP2;P2;SDS_P1;SDS_P2;PMS_P1;PMS_P2;Temp;Humidity;BMP_temperature;BMP_pressure;BME280_temperature;BME280_humidity;BME280_pressure;Samples;Min_cycle;Max_cycle;Signal;HPM_P1;HPM_P2
2021/12/01 00:00:14;;;;;;;17.00;4.00;;;11.10;99.90;;;;;;4991133;28;20215;-87
2021/12/01 00:02:41;;;;;;;20.13;6.17;;;11.10;99.90;;;;;;4990621;28;20235;-86
2021/12/01 00:05:11;;;;;;;26.00;4.80;;;11.10;99.90;;;;;;4991421;28;20509;-86
2021/12/01 00:07:38;;;;;;;22.43;4.60;;;11.00;99.90;;;;;;4972495;28;20204;-84
2021/12/01 00:10:07;;;;;;;22.13;4.17;;;11.10;99.90;;;;;;4972694;28;20211;-84
2021/12/01 00:12:34;;;;;;;18.37;4.80;;;11.00;99.90;;;;;;4977861;28;20239;-84
2021/12/01 00:15:01;;;;;;;17.90;4.30;;;11.10;99.90;;;;;;4991822;28;20199;-87
2021/12/01 00:17:28;;;;;;;21.43;4.87;;;11.10;99.90;;;;;;4991751;28;20200;-85
2021/12/01 00:19:59;;;;;;;22.50;5.67;;;11.10;99.90;;;;;;4991091;28;20201;-86
2021/12/01 00:22:27;;;;;;;28.87;4.73;;;11.10;99.90;;;;;;4990751;28;20232;-86
2021/12/01 00:24:55;;;;;;;21.60;3.90;;;11.10;99.90;;;;;;4991830;28;20208;-86
2021/12/01 00:27:21;;;;;;;18.20;4.80;;;11.10;99.90;;;;;;4991686;28;20211;-84
2021/12/01 00:29:49;;;;;;;23.50;5.30;;;11.20;99.90;;;;;;4991098;28;20508;-85
2021/12/01 00:32:17;;;;;;;20.10;4.50;;;11.20;99.90;;;;;;4991634;28;20204;-85
2021/12/01 00:34:44;;;;;;;23.97;4.57;;;11.20;99.90;;;;;;4991516;28;20534;-84
2021/12/01 00:37:11;;;;;;;23.63;4.47;;;11.20;99.90;;;;;;4991363;28;20482;-86
2021/12/01 00:39:39;;;;;;;20.97;5.23;;;11.20;99.90;;;;;;4980441;28;20635;-81
2021/12/01 00:42:06;;;;;;;21.53;4.53;;;11.30;99.90;;;;;;4971825;28;20534;-86
2021/12/01 00:44:35;;;;;;;21.63;4.57;;;11.30;99.90;;;;;;4978744;28;20782;-85
2021/12/01 00:47:06;;;;;;;21.43;3.70;;;11.30;99.90;;;;;;4990910;28;20204;-84
2021/12/01 00:49:35;;;;;;;28.77;5.33;;;11.30;99.90;;;;;;4990352;28;20311;-84
2021/12/01 00:52:03;;;;;;;18.83;4.07;;;11.20;99.90;;;;;;4991342;28;20196;-85
2021/12/01 00:54:30;;;;;;;24.27;4.63;;;11.20;99.90;;;;;;4990617;28;20790;-86
2021/12/01 00:56:58;;;;;;;20.40;4.63;;;11.30;99.90;;;;;;4990335;28;20200;-86
2021/12/01 00:59:25;;;;;;;20.43;4.80;;;11.30;99.90;;;;;;4987808;28;20215;-86
2021/12/01 01:01:52;;;;;;;16.63;4.03;;;11.30;99.90;;;;;;4990371;28;20291;-86
2021/12/01 01:04:19;;;;;;;18.13;4.10;;;11.30;99.90;;;;;;4990296;28;20488;-85
2021/12/01 01:06:46;;;;;;;14.87;3.40;;;11.30;99.90;;;;;;4988925;28;20223;-84
2021/12/01 01:09:13;;;;;;;30.47;5.50;;;11.30;99.90;;;;;;4986714;28;20215;-86
2021/12/01 01:17:18;;;;;;;20.90;5.20;;;11.30;99.90;;;;;;4992894;28;20483;-86
2021/12/01 01:19:45;;;;;;;29.50;4.87;;;11.40;99.90;;;;;;4975033;28;20243;-87
2021/12/01 01:22:11;;;;;;;36.37;5.37;;;11.40;99.90;;;;;;4975276;28;20220;-86
2021/12/01 01:24:38;;;;;;;23.87;4.67;;;11.40;99.90;;;;;;4975837;28;20208;-84
2021/12/01 01:27:06;;;;;;;28.93;5.13;;;11.40;99.90;;;;;;4991188;28;20208;-87
2021/12/01 01:29:36;;;;;;;31.20;5.57;;;11.30;99.90;;;;;;4994108;28;20511;-86
2021/12/01 01:32:04;;;;;;;26.60;5.93;;;11.40;99.90;;;;;;4995073;28;20279;-85
2021/12/01 01:34:31;;;;;;;31.80;6.57;;;11.30;99.90;;;;;;4993239;28;20200;-87
2021/12/01 01:36:58;;;;;;;41.10;7.30;;;11.40;99.90;;;;;;4994775;28;20215;-87
2021/12/01 01:39:25;;;;;;;29.07;7.63;;;11.40;99.90;;;;;;4993923;28;20218;-86
2021/12/01 01:41:54;;;;;;;36.33;6.57;;;11.40;99.90;;;;;;4993987;28;20243;-85
2021/12/01 01:44:21;;;;;;;33.20;6.57;;;11.30;99.90;;;;;;4975345;28;20287;-85
2021/12/01 01:46:49;;;;;;;36.93;7.57;;;11.30;99.90;;;;;;4980742;28;20223;-85
2021/12/01 01:49:18;;;;;;;31.00;6.20;;;11.30;99.90;;;;;;4994287;28;20241;-86
2021/12/01 01:51:46;;;;;;;34.63;6.20;;;11.30;99.90;;;;;;4994048;28;20270;-87
2021/12/01 01:54:13;;;;;;;31.00;6.67;;;11.30;99.90;;;;;;4992988;28;20208;-87
2021/12/01 01:56:41;;;;;;;24.93;5.33;;;11.30;99.90;;;;;;4993704;28;20604;-84
2021/12/01 01:59:08;;;;;;;31.53;6.33;;;11.20;99.90;;;;;;4992490;28;20243;-86
2021/12/01 02:04:25;;;;;;;30.87;6.10;;;11.20;99.90;;;;;;4968663;28;20207;-84
2021/12/01 02:06:52;;;;;;;35.33;7.10;;;11.20;99.90;;;;;;4977742;28;20210;-86
2021/12/01 02:09:22;;;;;;;33.23;7.73;;;11.20;99.90;;;;;;4990491;28;20247;-85
2021/12/01 02:11:52;;;;;;;31.80;6.20;;;11.20;99.90;;;;;;4993716;28;20200;-87
2021/12/01 02:14:18;;;;;;;36.10;7.23;;;11.20;99.90;;;;;;4993737;28;20890;-86
2021/12/01 02:16:45;;;;;;;26.80;6.03;;;11.10;99.90;;;;;;4993086;28;20207;-86
2021/12/01 02:19:12;;;;;;;30.30;6.13;;;11.20;99.90;;;;;;4993435;28;20211;-86
2021/12/01 02:21:41;;;;;;;39.40;7.30;;;11.20;99.90;;;;;;4993064;28;20203;-85
2021/12/01 02:24:10;;;;;;;45.33;10.13;;;11.20;99.90;;;;;;4993271;28;20217;-86
2021/12/01 02:26:40;;;;;;;28.97;6.73;;;11.20;99.90;;;;;;4992675;28;20216;-88
2021/12/01 02:29:09;;;;;;;32.20;6.80;;;11.30;99.90;;;;;;4993507;28;20676;-86
2021/12/01 02:31:37;;;;;;;31.37;6.40;;;11.30;99.90;;;;;;4993693;28;20188;-85
2021/12/01 02:34:04;;;;;;;38.70;7.17;;;11.40;99.90;;;;;;4993840;28;20371;-85
2021/12/01 02:36:32;;;;;;;38.80;8.00;;;11.40;99.90;;;;;;4992365;28;20219;-84
2021/12/01 02:39:01;;;;;;;39.47;7.20;;;11.40;99.90;;;;;;4991492;28;20745;-86
2021/12/01 02:41:31;;;;;;;40.07;7.97;;;11.40;99.90;;;;;;4990396;28;20698;-86
2021/12/01 02:43:59;;;;;;;30.23;7.83;;;11.40;99.90;;;;;;4993626;28;20561;-87
2021/12/01 02:46:27;;;;;;;35.87;8.00;;;11.40;99.90;;;;;;4992751;28;20207;-86
2021/12/01 02:48:56;;;;;;;36.90;7.17;;;11.50;99.90;;;;;;4973561;28;20235;-85
2021/12/01 02:51:26;;;;;;;33.93;8.20;;;11.40;99.90;;;;;;4972857;28;20209;-85
2021/12/01 02:53:54;;;;;;;49.67;8.33;;;11.40;99.90;;;;;;4973176;28;20291;-86
2021/12/01 02:56:24;;;;;;;44.47;8.50;;;11.50;99.90;;;;;;4975129;28;20213;-86
2021/12/01 02:58:51;;;;;;;34.70;6.60;;;11.50;99.90;;;;;;4992790;28;20309;-86
2021/12/01 03:01:21;;;;;;;40.13;8.00;;;11.40;99.90;;;;;;4981325;28;20312;-86
2021/12/01 03:03:49;;;;;;;41.83;8.90;;;11.40;99.90;;;;;;4973129;28;20534;-86
2021/12/01 03:06:18;;;;;;;32.93;7.23;;;11.40;99.90;;;;;;4973071;28;20212;-83
2021/12/01 03:08:47;;;;;;;35.53;6.87;;;11.40;99.90;;;;;;4972197;28;20216;-86
2021/12/01 03:11:15;;;;;;;33.53;7.37;;;11.40;99.90;;;;;;4972451;28;20251;-86
2021/12/01 03:13:44;;;;;;;33.87;6.60;;;11.40;99.90;;;;;;4973403;28;20196;-85
2021/12/01 03:16:11;;;;;;;33.17;6.10;;;11.30;99.90;;;;;;4979660;28;20200;-85
2021/12/01 03:18:38;;;;;;;30.20;5.27;;;11.30;99.90;;;;;;4990184;28;20199;-85
2021/12/01 03:21:05;;;;;;;25.00;5.23;;;11.30;99.90;;;;;;4990537;28;20611;-84
2021/12/01 03:23:32;;;;;;;25.97;5.73;;;11.30;99.90;;;;;;4991408;28;20227;-87
2021/12/01 03:25:59;;;;;;;31.13;5.90;;;11.20;99.90;;;;;;4991903;28;20207;-87
2021/12/01 03:28:26;;;;;;;24.73;5.47;;;11.20;99.90;;;;;;4991622;28;20608;-86
2021/12/01 03:30:54;;;;;;;29.90;7.00;;;11.20;99.90;;;;;;4991787;28;20204;-84
2021/12/01 03:33:23;;;;;;;22.77;4.37;;;11.20;99.90;;;;;;4991849;28;20481;-86
2021/12/01 03:35:52;;;;;;;22.37;4.70;;;11.20;99.90;;;;;;4992047;28;20489;-87
2021/12/01 03:38:21;;;;;;;21.40;5.23;;;11.10;99.90;;;;;;4972672;28;20219;-88
2021/12/01 03:40:48;;;;;;;24.93;5.07;;;11.10;99.90;;;;;;4972897;28;20201;-88
2021/12/01 03:43:15;;;;;;;20.10;3.80;;;11.10;99.90;;;;;;4972453;28;20232;-84
2021/12/01 03:45:42;;;;;;;21.97;6.07;;;11.10;99.90;;;;;;4972814;28;20200;-82
2021/12/01 03:48:11;;;;;;;17.60;3.87;;;11.00;99.90;;;;;;4972924;28;20213;-87
2021/12/01 03:50:39;;;;;;;18.87;4.30;;;11.00;99.90;;;;;;4972579;28;20232;-83
2021/12/01 03:53:06;;;;;;;16.43;3.73;;;11.00;99.90;;;;;;4974814;28;20204;-85
2021/12/01 03:55:35;;;;;;;16.87;3.67;;;10.90;99.90;;;;;;4989609;28;20662;-87
2021/12/01 03:58:02;;;;;;;14.60;4.10;;;10.90;99.90;;;;;;4991014;28;20203;-86
2021/12/01 04:00:29;;;;;;;21.67;3.63;;;10.90;99.90;;;;;;4991761;28;20223;-88
2021/12/01 04:02:56;;;;;;;20.70;3.93;;;10.90;99.90;;;;;;4984918;28;20216;-86
2021/12/01 04:05:24;;;;;;;17.27;3.13;;;10.80;99.90;;;;;;4971468;28;20211;-86
2021/12/01 04:07:51;;;;;;;15.63;3.93;;;10.80;99.90;;;;;;4972322;28;20211;-84
2021/12/01 04:10:19;;;;;;;16.03;3.50;;;10.80;99.90;;;;;;4971720;28;20904;-88
2021/12/01 04:12:46;;;;;;;14.33;2.87;;;10.80;99.90;;;;;;4970471;28;20204;-87
2021/12/01 04:15:15;;;;;;;14.87;3.43;;;10.80;99.90;;;;;;4971227;28;20202;-87
2021/12/01 04:17:44;;;;;;;14.70;3.23;;;10.70;99.90;;;;;;4972342;28;20215;-86
2021/12/01 04:20:13;;;;;;;16.60;3.40;;;10.70;99.90;;;;;;4972944;28;20211;-90
2021/12/01 04:22:41;;;;;;;13.40;3.07;;;10.70;99.90;;;;;;4972228;28;20225;-86
2021/12/01 04:25:09;;;;;;;10.87;3.20;;;10.70;99.90;;;;;;4972464;28;20212;-87
2021/12/01 04:27:36;;;;;;;11.37;3.10;;;10.60;99.90;;;;;;4972377;28;20219;-89
2021/12/01 04:30:04;;;;;;;19.30;3.63;;;10.60;99.90;;;;;;4971951;28;20204;-89
2021/12/01 04:32:31;;;;;;;11.43;2.93;;;10.60;99.90;;;;;;4970991;28;20205;-88
2021/12/01 04:34:58;;;;;;;17.87;4.40;;;10.60;99.90;;;;;;4992030;28;20235;-86
2021/12/01 04:37:25;;;;;;;12.63;2.87;;;10.60;99.90;;;;;;4978158;28;20204;-86
2021/12/01 04:39:54;;;;;;;11.67;2.60;;;10.60;99.90;;;;;;4972234;28;20208;-89
2021/12/01 04:42:21;;;;;;;16.77;3.70;;;10.50;99.90;;;;;;4969822;28;20656;-84
2021/12/01 04:44:48;;;;;;;12.10;3.33;;;10.50;99.90;;;;;;4972792;28;20308;-88
2021/12/01 04:47:18;;;;;;;11.60;2.73;;;10.50;99.90;;;;;;4972461;28;20212;-86
2021/12/01 04:49:45;;;;;;;14.10;3.20;;;10.50;99.90;;;;;;4973170;28;20291;-89
2021/12/01 04:52:12;;;;;;;16.37;3.47;;;10.50;99.90;;;;;;4975789;28;20212;-86
2021/12/01 04:54:39;;;;;;;15.27;4.03;;;10.50;99.90;;;;;;4975744;28;20295;-91
2021/12/01 04:57:08;;;;;;;17.47;4.57;;;10.40;99.90;;;;;;4976078;28;20830;-86
2021/12/01 04:59:37;;;;;;;22.10;4.73;;;10.50;99.90;;;;;;4989612;28;20224;-88
2021/12/01 05:02:04;;;;;;;17.47;5.30;;;10.40;99.90;;;;;;4995198;28;20208;-90
2021/12/01 05:04:32;;;;;;;23.13;5.50;;;10.40;99.90;;;;;;4994458;28;20232;-89
2021/12/01 05:06:59;;;;;;;19.83;5.33;;;10.40;99.90;;;;;;4983041;28;20208;-88
2021/12/01 05:09:26;;;;;;;19.87;5.00;;;10.40;99.90;;;;;;4975470;28;20212;-86
2021/12/01 05:11:53;;;;;;;16.97;4.27;;;10.40;99.90;;;;;;4976180;28;20234;-91
2021/12/01 05:14:22;;;;;;;20.10;4.53;;;10.40;99.90;;;;;;4976603;28;20641;-90
2021/12/01 05:16:49;;;;;;;27.67;4.87;;;10.40;99.90;;;;;;4983134;28;20216;-87
2021/12/01 05:19:17;;;;;;;19.30;4.23;;;10.40;99.90;;;;;;5012811;23;20243;-84
2021/12/01 05:21:43;;;;;;;25.43;4.97;;;10.40;99.90;;;;;;5016734;28;20210;-88
2021/12/01 05:24:10;;;;;;;27.37;5.20;;;10.40;99.90;;;;;;5034031;28;20313;-88
2021/12/01 05:26:38;;;;;;;27.33;5.23;;;10.50;99.90;;;;;;5014410;28;20214;-87
2021/12/01 05:29:05;;;;;;;24.67;6.17;;;10.50;99.90;;;;;;5014847;28;20776;-88
2021/12/01 05:31:34;;;;;;;28.80;4.53;;;10.50;99.90;;;;;;5030692;28;20215;-88
2021/12/01 05:34:01;;;;;;;28.87;5.20;;;10.50;99.90;;;;;;5034529;28;20203;-89
2021/12/01 05:36:28;;;;;;;23.77;5.40;;;10.50;99.90;;;;;;5034359;28;20206;-88
2021/12/01 05:38:55;;;;;;;25.47;6.10;;;10.40;99.90;;;;;;5034530;28;20706;-89
2021/12/01 05:41:22;;;;;;;22.57;5.43;;;10.40;99.90;;;;;;5033665;28;20230;-87
2021/12/01 05:43:49;;;;;;;27.50;5.77;;;10.50;99.90;;;;;;5031147;28;20253;-87
2021/12/01 05:46:16;;;;;;;27.33;6.93;;;10.50;99.90;;;;;;5033831;28;20194;-87
2021/12/01 05:48:44;;;;;;;26.47;5.53;;;10.50;99.90;;;;;;5030652;28;20622;-86
2021/12/01 05:51:11;;;;;;;28.00;6.10;;;10.50;99.90;;;;;;5033015;28;20310;-87
2021/12/01 05:53:38;;;;;;;29.30;5.37;;;10.50;99.90;;;;;;5032770;28;20210;-88
2021/12/01 05:56:06;;;;;;;25.83;5.97;;;10.50;99.90;;;;;;5029546;28;20230;-87
2021/12/01 05:58:32;;;;;;;34.53;7.57;;;10.50;99.90;;;;;;5030860;28;20206;-86
2021/12/01 06:00:59;;;;;;;34.07;8.17;;;10.60;99.90;;;;;;5029638;28;20210;-88
2021/12/01 06:03:27;;;;;;;27.00;5.80;;;10.60;99.90;;;;;;5029767;28;20226;-85
2021/12/01 06:05:55;;;;;;;36.93;6.90;;;10.70;99.90;;;;;;5031014;28;20257;-86
2021/12/01 06:08:22;;;;;;;26.33;6.03;;;10.70;99.90;;;;;;5031472;28;20211;-88
2021/12/01 06:10:49;;;;;;;26.03;6.03;;;10.70;99.90;;;;;;5033265;28;20202;-83
2021/12/01 06:13:18;;;;;;;28.80;7.90;;;10.70;99.90;;;;;;5031033;28;20258;-86
2021/12/01 06:15:45;;;;;;;34.17;6.87;;;10.70;99.90;;;;;;5031746;28;20214;-85
2021/12/01 06:18:12;;;;;;;42.20;9.20;;;10.70;99.90;;;;;;5031440;28;20677;-88
2021/12/01 06:20:40;;;;;;;29.87;7.10;;;10.70;99.90;;;;;;5019043;28;20208;-85
2021/12/01 06:23:08;;;;;;;29.23;6.30;;;10.70;99.90;;;;;;5012641;28;20726;-85
2021/12/01 06:25:35;;;;;;;33.03;5.90;;;10.70;99.90;;;;;;5015494;28;20213;-87
2021/12/01 06:28:02;;;;;;;28.80;5.67;;;10.70;99.90;;;;;;5031692;28;20201;-88
2021/12/01 06:30:33;;;;;;;31.37;5.97;;;10.70;99.90;;;;;;5031691;28;20674;-86
2021/12/01 06:33:01;;;;;;;31.17;6.07;;;10.70;99.90;;;;;;5031896;28;20209;-86
2021/12/01 06:35:28;;;;;;;32.70;6.87;;;10.70;99.90;;;;;;5031131;28;20214;-85
2021/12/01 06:37:55;;;;;;;28.13;7.03;;;10.70;99.90;;;;;;5032308;28;20218;-86
2021/12/01 06:40:24;;;;;;;37.77;6.80;;;10.70;99.90;;;;;;5031281;28;20209;-86
2021/12/01 06:42:51;;;;;;;30.83;6.80;;;10.80;99.90;;;;;;5029708;28;20207;-87
2021/12/01 06:45:18;;;;;;;32.17;7.13;;;10.80;99.90;;;;;;5031345;28;20214;-87
2021/12/01 06:47:45;;;;;;;41.33;8.43;;;10.80;99.90;;;;;;5032454;28;20211;-85
2021/12/01 06:50:13;;;;;;;36.53;8.53;;;10.80;99.90;;;;;;5031822;28;20214;-81
2021/12/01 06:52:40;;;;;;;24.53;7.50;;;10.80;99.90;;;;;;5031890;28;20202;-88
2021/12/01 06:55:09;;;;;;;37.40;9.20;;;10.90;99.90;;;;;;5029621;28;20261;-88
2021/12/01 06:57:37;;;;;;;32.97;6.63;;;10.80;99.90;;;;;;5014930;28;20203;-87
2021/12/01 07:00:07;;;;;;;26.20;5.23;;;10.80;99.90;;;;;;5012787;28;20195;-86
2021/12/01 07:02:34;;;;;;;25.27;4.97;;;10.80;99.90;;;;;;5021979;28;20210;-85
2021/12/01 07:05:01;;;;;;;19.63;4.40;;;10.90;99.90;;;;;;5031732;28;20226;-82
2021/12/01 07:07:28;;;;;;;15.63;3.47;;;10.80;99.90;;;;;;5031754;28;20202;-86
2021/12/01 07:09:55;;;;;;;22.20;5.23;;;10.80;99.90;;;;;;5032216;28;20205;-85
2021/12/01 07:12:22;;;;;;;17.93;5.30;;;10.80;99.90;;;;;;5031332;28;20253;-82
2021/12/01 07:14:51;;;;;;;16.07;4.17;;;10.80;99.90;;;;;;5030973;28;20490;-86
2021/12/01 07:17:18;;;;;;;21.53;5.33;;;10.80;99.90;;;;;;5028463;28;20211;-85
2021/12/01 07:19:44;;;;;;;31.20;6.23;;;10.70;99.90;;;;;;5030744;28;20238;-86
2021/12/01 07:22:12;;;;;;;28.27;6.77;;;10.70;99.90;;;;;;5031425;28;20206;-86
2021/12/01 07:24:39;;;;;;;27.63;6.10;;;10.70;99.90;;;;;;5031863;28;20920;-85
2021/12/01 07:27:06;;;;;;;25.03;6.13;;;10.70;99.90;;;;;;5032367;28;20223;-85
2021/12/01 07:29:34;;;;;;;21.90;5.03;;;10.70;99.90;;;;;;5031291;28;20203;-85
2021/12/01 07:32:04;;;;;;;20.20;4.67;;;10.60;99.90;;;;;;5031238;28;20947;-82
2021/12/01 07:34:30;;;;;;;18.60;3.97;;;10.60;99.90;;;;;;5029582;28;20206;-83
2021/12/01 07:36:57;;;;;;;14.87;3.90;;;10.60;99.90;;;;;;5031311;28;20191;-83
2021/12/01 07:39:24;;;;;;;14.60;4.50;;;10.60;99.90;;;;;;5030054;28;20213;-86
2021/12/01 07:41:51;;;;;;;10.90;3.67;;;10.60;99.90;;;;;;5031408;28;20202;-84
2021/12/01 07:44:18;;;;;;;16.77;4.20;;;10.50;99.90;;;;;;5030682;28;20226;-83
2021/12/01 07:46:46;;;;;;;15.43;2.80;;;10.60;99.90;;;;;;5030229;28;20202;-84
2021/12/01 07:49:14;;;;;;;10.07;2.83;;;10.60;99.90;;;;;;5030914;28;20226;-87
2021/12/01 07:51:41;;;;;;;17.40;3.07;;;10.40;99.90;;;;;;5030402;28;20210;-83
2021/12/01 07:54:08;;;;;;;20.37;4.63;;;10.40;99.90;;;;;;5030292;28;20199;-84
2021/12/01 07:56:34;;;;;;;16.77;3.73;;;10.30;99.90;;;;;;5010379;28;20522;-85
2021/12/01 07:59:02;;;;;;;19.50;3.83;;;10.20;99.90;;;;;;5010170;28;20550;-87
2021/12/01 08:01:28;;;;;;;14.23;2.80;;;10.20;99.90;;;;;;5009209;28;20195;-86
2021/12/01 08:03:55;;;;;;;13.23;3.20;;;10.20;99.90;;;;;;5010979;28;20227;-86
2021/12/01 08:06:25;;;;;;;20.50;3.20;;;10.20;99.90;;;;;;5008945;28;20200;-82
2021/12/01 08:08:52;;;;;;;10.10;2.67;;;10.10;99.90;;;;;;5007454;28;20266;-85
2021/12/01 08:11:19;;;;;;;17.13;3.50;;;10.10;99.90;;;;;;5009098;28;20879;-84
2021/12/01 08:13:46;;;;;;;14.60;3.53;;;10.10;99.90;;;;;;5026733;28;20256;-84
2021/12/01 08:16:13;;;;;;;16.00;3.67;;;10.00;99.90;;;;;;5028603;28;20211;-83
2021/12/01 08:18:40;;;;;;;19.37;3.90;;;10.10;99.90;;;;;;5026995;28;20673;-84
2021/12/01 08:21:06;;;;;;;20.87;4.07;;;10.10;99.90;;;;;;5028679;28;20217;-83
2021/12/01 08:23:35;;;;;;;22.70;4.20;;;10.10;99.90;;;;;;5028822;28;20190;-82
2021/12/01 08:26:02;;;;;;;22.27;4.07;;;10.10;99.90;;;;;;5031925;28;20217;-82
2021/12/01 08:28:29;;;;;;;21.60;4.20;;;10.10;99.90;;;;;;5032230;28;20210;-88
2021/12/01 08:30:55;;;;;;;17.53;3.87;;;10.20;99.90;;;;;;5032883;28;20198;-83
2021/12/01 08:33:24;;;;;;;12.90;3.03;;;10.20;99.90;;;;;;5003476;28;20214;-83
2021/12/01 08:35:50;;;;;;;16.30;3.73;;;10.20;99.90;;;;;;5033378;28;20191;-86
2021/12/01 08:38:17;;;;;;;16.07;3.80;;;10.10;99.90;;;;;;5033154;28;20586;-84
2021/12/01 08:40:46;;;;;;;15.53;3.10;;;10.10;99.90;;;;;;5033313;28;20217;-81
2021/12/01 08:43:13;;;;;;;5.73;2.40;;;10.10;99.90;;;;;;5032080;28;20233;-82
2021/12/01 08:45:40;;;;;;;22.97;3.30;;;10.00;99.90;;;;;;5032653;28;20230;-84
2021/12/01 08:48:06;;;;;;;13.40;2.93;;;9.90;99.90;;;;;;5032622;28;20604;-84
2021/12/01 08:50:35;;;;;;;18.23;3.17;;;9.90;99.90;;;;;;5065858;23;20242;-86
2021/12/01 08:53:02;;;;;;;18.63;4.33;;;9.80;99.90;;;;;;5032025;28;20221;-83
2021/12/01 08:55:29;;;;;;;18.27;3.13;;;9.70;99.90;;;;;;5032026;28;20513;-83
2021/12/01 08:57:57;;;;;;;14.57;3.10;;;9.70;99.90;;;;;;5032433;28;20206;-83
2021/12/01 09:00:24;;;;;;;18.00;4.17;;;9.60;99.90;;;;;;5032301;28;20242;-84
2021/12/01 09:02:51;;;;;;;16.83;4.57;;;9.60;99.90;;;;;;5033124;28;20206;-81
2021/12/01 09:05:18;;;;;;;28.97;4.47;;;9.60;99.90;;;;;;5030487;28;20230;-82
2021/12/01 09:07:45;;;;;;;21.97;3.77;;;9.60;99.90;;;;;;5031828;28;20213;-81
2021/12/01 09:10:12;;;;;;;18.80;3.97;;;9.60;99.90;;;;;;5031942;28;20214;-82
2021/12/01 09:12:41;;;;;;;20.63;5.20;;;9.60;99.90;;;;;;5039182;28;20221;-81
2021/12/01 09:15:10;;;;;;;19.00;3.97;;;9.70;99.90;;;;;;5031334;28;20206;-81
2021/12/01 09:17:37;;;;;;;27.73;6.27;;;9.70;99.90;;;;;;5029518;28;20505;-81
2021/12/01 09:20:05;;;;;;;16.80;3.83;;;9.80;99.90;;;;;;5028403;28;20202;-81
2021/12/01 09:22:32;;;;;;;14.20;3.00;;;9.80;99.90;;;;;;5029975;28;20207;-82
2021/12/01 09:24:58;;;;;;;12.57;2.80;;;9.90;99.90;;;;;;5038068;23;20230;-82
2021/12/01 09:27:25;;;;;;;19.57;3.80;;;9.90;99.90;;;;;;5029104;28;20209;-83
2021/12/01 09:29:53;;;;;;;16.33;2.93;;;9.90;99.90;;;;;;5032440;28;20754;-82
2021/12/01 09:32:21;;;;;;;12.40;2.57;;;9.90;99.90;;;;;;5031325;28;20211;-84
2021/12/01 09:34:48;;;;;;;20.13;4.13;;;9.90;99.90;;;;;;5031461;28;20210;-85
2021/12/01 09:37:16;;;;;;;22.23;5.30;;;9.90;99.90;;;;;;5029720;28;20198;-83
2021/12/01 09:39:43;;;;;;;20.83;3.67;;;9.90;99.90;;;;;;5031928;28;20272;-84
2021/12/01 09:42:10;;;;;;;23.07;5.70;;;9.90;99.90;;;;;;5031324;28;20517;-80
2021/12/01 09:44:38;;;;;;;25.33;4.70;;;9.90;99.90;;;;;;5032397;28;20219;-84
2021/12/01 09:47:06;;;;;;;26.07;4.50;;;9.90;99.90;;;;;;5031643;28;20205;-84
2021/12/01 09:49:34;;;;;;;24.60;4.73;;;9.90;99.90;;;;;;5031009;28;20235;-80
2021/12/01 09:52:01;;;;;;;13.83;4.50;;;9.90;99.90;;;;;;5024252;28;20234;-82
2021/12/01 09:54:28;;;;;;;17.80;4.93;;;9.90;99.90;;;;;;5010837;28;20203;-83
2021/12/01 09:56:55;;;;;;;20.07;3.80;;;9.90;99.90;;;;;;5011454;28;20210;-78
2021/12/01 09:59:21;;;;;;;22.17;5.80;;;9.90;99.90;;;;;;5021955;28;20213;-84
2021/12/01 10:01:48;;;;;;;15.47;4.30;;;9.90;99.90;;;;;;5010567;28;20221;-80
2021/12/01 10:04:15;;;;;;;16.43;3.10;;;9.90;99.90;;;;;;5011309;28;20218;-82
2021/12/01 10:06:43;;;;;;;20.27;4.17;;;9.90;99.90;;;;;;4996889;28;20215;-83
2021/12/01 10:09:11;;;;;;;16.87;3.80;;;10.00;99.90;;;;;;4991932;28;20215;-82
2021/12/01 10:11:41;;;;;;;14.53;3.13;;;10.00;99.90;;;;;;4992084;28;20210;-83
2021/12/01 10:14:15;;;;;;;22.17;4.43;;;10.00;99.90;;;;;;5006586;28;20211;-79
2021/12/01 10:16:43;;;;;;;21.40;3.93;;;10.10;99.90;;;;;;5010778;28;20209;-83
2021/12/01 10:19:12;;;;;;;18.97;4.00;;;10.10;99.90;;;;;;5010235;28;20754;-83
2021/12/01 10:21:40;;;;;;;19.73;3.50;;;10.10;99.90;;;;;;5010584;28;20203;-80
2021/12/01 10:24:11;;;;;;;11.93;3.10;;;10.10;99.90;;;;;;5008467;28;20231;-79
2021/12/01 10:26:41;;;;;;;17.23;3.70;;;10.10;99.90;;;;;;5009640;28;20207;-80
2021/12/01 10:29:10;;;;;;;13.90;3.53;;;10.10;99.90;;;;;;4999390;28;20215;-80
2021/12/01 10:31:41;;;;;;;16.17;3.53;;;10.10;99.90;;;;;;4990017;28;20203;-81
2021/12/01 10:34:23;;;;;;;17.40;3.43;;;10.10;99.90;;;;;;4988554;28;20204;-82
2021/12/01 10:36:52;;;;;;;16.93;3.97;;;10.10;99.90;;;;;;4991024;28;20200;-81
2021/12/01 10:39:22;;;;;;;20.13;4.20;;;10.10;99.90;;;;;;4990695;28;20601;-83
2021/12/01 10:41:51;;;;;;;17.40;4.70;;;10.10;99.90;;;;;;4991411;28;20212;-82
2021/12/01 10:44:19;;;;;;;14.20;3.37;;;10.10;99.90;;;;;;4997719;28;20195;-86
2021/12/01 10:46:49;;;;;;;17.53;3.83;;;10.10;99.90;;;;;;5010306;28;20199;-84
2021/12/01 10:49:17;;;;;;;17.83;3.87;;;10.20;99.90;;;;;;5009220;28;20257;-82
2021/12/01 10:51:45;;;;;;;19.50;4.50;;;10.20;99.90;;;;;;5008502;28;20508;-82
2021/12/01 10:54:19;;;;;;;16.80;3.67;;;10.20;99.90;;;;;;5009237;28;20585;-80
2021/12/01 10:56:47;;;;;;;18.57;3.90;;;10.20;99.90;;;;;;5008108;28;20265;-83
2021/12/01 10:59:17;;;;;;;13.47;3.97;;;10.20;99.90;;;;;;5008901;28;20211;-82
2021/12/01 11:01:45;;;;;;;17.87;3.67;;;10.20;99.90;;;;;;5017830;28;20198;-83
2021/12/01 11:04:13;;;;;;;16.57;3.60;;;10.20;99.90;;;;;;5029914;28;20209;-83
2021/12/01 11:06:43;;;;;;;13.63;3.60;;;10.20;99.90;;;;;;5010313;28;20290;-82
2021/12/01 11:09:13;;;;;;;24.80;4.90;;;10.20;99.90;;;;;;5010383;28;20249;-86
2021/12/01 11:11:43;;;;;;;21.57;3.87;;;10.10;99.90;;;;;;5009078;28;20372;-82
2021/12/01 11:14:14;;;;;;;23.73;5.07;;;10.20;99.90;;;;;;5009942;28;20272;-92
2021/12/01 11:16:42;;;;;;;20.63;3.90;;;10.20;99.90;;;;;;5010057;28;20230;-82
2021/12/01 11:19:10;;;;;;;23.50;5.13;;;10.30;99.90;;;;;;5009595;28;20214;-84
2021/12/01 11:21:38;;;;;;;20.33;4.50;;;10.30;99.90;;;;;;5009384;28;20498;-84
2021/12/01 11:24:08;;;;;;;17.07;3.33;;;10.30;99.90;;;;;;5008937;28;20239;-84
2021/12/01 11:26:41;;;;;;;15.80;3.57;;;10.20;99.90;;;;;;5010276;28;20293;-84
2021/12/01 11:29:12;;;;;;;16.50;3.70;;;10.20;99.90;;;;;;5010199;28;20199;-83
2021/12/01 11:31:43;;;;;;;16.77;4.27;;;10.20;99.90;;;;;;5008776;28;20203;-80
2021/12/01 11:34:13;;;;;;;16.63;4.03;;;10.20;99.90;;;;;;5005369;28;20211;-82
2021/12/01 11:36:42;;;;;;;15.90;3.33;;;10.20;99.90;;;;;;4989282;28;20200;-84
2021/12/01 11:39:11;;;;;;;14.43;3.67;;;10.20;99.90;;;;;;4991471;28;20206;-81
2021/12/01 11:41:42;;;;;;;23.27;4.30;;;10.20;99.90;;;;;;5008678;28;20291;-79
2021/12/01 11:44:10;;;;;;;29.33;6.67;;;10.20;99.90;;;;;;5008798;28;20204;-80
2021/12/01 11:46:37;;;;;;;20.53;4.30;;;10.10;99.90;;;;;;5007686;28;20234;-85
2021/12/01 11:49:08;;;;;;;25.90;5.57;;;10.10;99.90;;;;;;5022994;28;20221;-81
2021/12/01 11:51:41;;;;;;;19.07;3.90;;;10.00;99.90;;;;;;5026317;28;20206;-79
2021/12/01 11:54:11;;;;;;;24.43;4.27;;;9.90;99.90;;;;;;4998592;28;20244;-81
2021/12/01 11:56:42;;;;;;;27.10;6.20;;;9.90;99.90;;;;;;4987187;28;20321;-79
2021/12/01 11:59:20;;;;;;;18.77;4.90;;;9.80;99.90;;;;;;4991196;28;20619;-82
2021/12/01 12:01:52;;;;;;;23.00;5.70;;;9.80;99.90;;;;;;5007105;28;20480;-79
2021/12/01 12:04:29;;;;;;;19.00;4.67;;;9.70;99.90;;;;;;5005782;28;20199;-78
2021/12/01 12:07:04;;;;;;;27.93;6.00;;;9.70;99.90;;;;;;5006671;28;20217;-81
2021/12/01 12:09:31;;;;;;;22.07;4.73;;;9.60;99.90;;;;;;4996937;28;20297;-80
2021/12/01 12:12:17;;;;;;;22.93;4.43;;;9.60;99.90;;;;;;4987110;28;20208;-79
2021/12/01 12:14:56;;;;;;;25.33;4.63;;;9.60;99.90;;;;;;4987026;28;20231;-81
2021/12/01 12:17:35;;;;;;;23.30;4.20;;;9.60;99.90;;;;;;4987057;28;20211;-81
2021/12/01 12:20:12;;;;;;;20.13;4.47;;;9.60;99.90;;;;;;4989065;28;20528;-80
2021/12/01 12:23:04;;;;;;;13.27;3.80;;;9.70;99.90;;;;;;5006279;28;20620;-82
2021/12/01 12:25:54;;;;;;;19.20;3.37;;;9.70;99.90;;;;;;4999617;28;20251;-81
2021/12/01 12:28:27;;;;;;;21.90;4.30;;;9.70;99.90;;;;;;4984340;28;20208;-82
2021/12/01 12:30:58;;;;;;;23.80;4.33;;;9.70;99.90;;;;;;4985883;28;20258;-81
2021/12/01 12:33:28;;;;;;;20.87;4.67;;;9.70;99.90;;;;;;4985906;28;20204;-82
2021/12/01 12:35:58;;;;;;;20.97;4.20;;;9.70;99.90;;;;;;5006714;28;20202;-81
2021/12/01 12:38:25;;;;;;;16.77;4.23;;;9.60;99.90;;;;;;5006178;28;20199;-81
2021/12/01 12:41:06;;;;;;;20.50;4.80;;;9.50;99.90;;;;;;5015586;28;20210;-82
2021/12/01 12:43:33;;;;;;;20.70;4.00;;;9.50;99.90;;;;;;4991972;28;20212;-80
2021/12/01 12:46:02;;;;;;;19.30;4.10;;;9.50;99.90;;;;;;5003822;28;20298;-79
2021/12/01 12:48:30;;;;;;;19.13;3.70;;;9.50;99.90;;;;;;5025798;28;20202;-81
2021/12/01 12:51:19;;;;;;;30.23;4.50;;;9.50;99.90;;;;;;5025945;28;20226;-81